Time;durP1;ratioP1;P1;durP2;ratioP2;P2;SDS_P1;SDS_P2;PMS_P1;PMS_P2;Temp;Humidity;BMP_temperature;BMP_pressure;BME280_temperature;BME280_humidity;BME280_pressure;Samples;Min_cycle;Max_cycle;Signal;HPM_P1;HPM_P2
2020/12/02 00:00:59;;;;;;;1999.90;999.90;;;7.30;99.90;;;;;;5095326;28;20105;-89
2020/12/02 00:03:33;;;;;;;1999.90;999.90;;;7.30;99.90;;;;;;5096066;28;20044;-89
2020/12/02 00:06:02;;;;;;;1999.90;999.90;;;7.30;99.90;;;;;;5095325;28;20078;-89
2020/12/02 00:08:32;;;;;;;1999.90;999.90;;;7.30;99.90;;;;;;5093647;28;20136;-89
2020/12/02 00:11:01;;;;;;;1999.90;999.90;;;7.30;99.90;;;;;;5095761;28;20052;-89
2020/12/02 00:13:32;;;;;;;1999.90;999.90;;;7.30;99.90;;;;;;5094938;28;20139;-89
2020/12/02 00:16:00;;;;;;;1999.90;999.90;;;7.30;99.90;;;;;;5086144;28;20143;-89
2020/12/02 00:18:27;;;;;;;1999.90;999.90;;;7.30;99.90;;;;;;5095248;28;20449;-89
2020/12/02 00:20:55;;;;;;;1999.90;999.90;;;7.30;99.90;;;;;;5094879;28;20072;-89
2020/12/02 00:23:22;;;;;;;1999.90;999.90;;;7.30;99.90;;;;;;5094391;28;20044;-88
2020/12/02 00:25:50;;;;;;;1999.90;999.90;;;7.30;99.90;;;;;;5090611;28;20054;-89
2020/12/02 00:28:18;;;;;;;1999.90;999.90;;;7.30;99.90;;;;;;5094851;28;20181;-89
2020/12/02 00:30:45;;;;;;;1999.90;999.90;;;7.30;99.90;;;;;;5094642;28;20197;-88
2020/12/02 00:33:15;;;;;;;1999.90;999.90;;;7.30;99.90;;;;;;5094793;28;20078;-89
2020/12/02 00:35:42;;;;;;;1999.90;999.90;;;7.40;99.90;;;;;;5095204;28;20052;-89
2020/12/02 00:38:12;;;;;;;1999.90;999.90;;;7.40;99.90;;;;;;5094822;28;20060;-88
2020/12/02 00:40:44;;;;;;;1999.90;999.90;;;7.30;99.90;;;;;;5093996;28;20059;-89
2020/12/02 00:43:12;;;;;;;1999.90;999.90;;;7.30;99.90;;;;;;5085104;28;20051;-88
2020/12/02 00:45:40;;;;;;;1999.90;999.90;;;7.30;99.90;;;;;;5095341;28;20131;-89
2020/12/02 00:48:12;;;;;;;1999.90;999.90;;;7.30;99.90;;;;;;5094847;28;20036;-89
2020/12/02 00:50:39;;;;;;;1999.90;999.90;;;7.30;99.90;;;;;;5095603;28;20052;-88
2020/12/02 00:53:09;;;;;;;1999.90;999.90;;;7.40;99.90;;;;;;5094303;28;20083;-89
2020/12/02 00:55:36;;;;;;;1999.90;999.90;;;7.30;99.90;;;;;;5094932;28;20087;-90
2020/12/02 00:58:06;;;;;;;1999.90;999.90;;;7.30;99.90;;;;;;5094718;28;20483;-89
2020/12/02 01:04:22;;;;;;;1999.90;999.90;;;7.30;99.90;;;;;;5094862;28;20490;-89
2020/12/02 01:06:51;;;;;;;1999.90;999.90;;;7.30;99.90;;;;;;5094317;28;20082;-88
2020/12/02 01:09:19;;;;;;;1999.90;999.90;;;7.30;99.90;;;;;;5093602;28;20048;-89
2020/12/02 01:11:48;;;;;;;1999.90;999.90;;;7.30;99.90;;;;;;5093146;28;20071;-90
2020/12/02 01:14:17;;;;;;;1999.90;999.90;;;7.30;99.90;;;;;;5088631;28;20058;-88
2020/12/02 01:16:47;;;;;;;1999.90;999.90;;;7.30;99.90;;;;;;5088033;28;20139;-90
2020/12/02 01:19:16;;;;;;;1999.90;999.90;;;7.30;99.90;;;;;;5093371;28;20135;-89
2020/12/02 01:21:54;;;;;;;1999.90;999.90;;;7.30;99.90;;;;;;5103951;28;20445;-90
2020/12/02 01:24:27;;;;;;;1999.90;999.90;;;7.30;99.90;;;;;;5095843;28;20052;-89
2020/12/02 01:27:02;;;;;;;1999.90;999.90;;;7.30;99.90;;;;;;5094522;28;20414;-89
2020/12/02 01:29:29;;;;;;;1999.90;999.90;;;7.30;99.90;;;;;;5091854;28;20562;-88
2020/12/02 01:31:58;;;;;;;1999.90;999.90;;;7.30;99.90;;;;;;5092333;28;20060;-89
2020/12/02 01:34:26;;;;;;;1999.90;999.90;;;7.20;99.90;;;;;;5092636;28;20044;-89
2020/12/02 01:37:25;;;;;;;1999.90;999.90;;;7.30;99.90;;;;;;5094186;28;20074;-89
2020/12/02 01:40:02;;;;;;;1999.90;999.90;;;7.30;99.90;;;;;;5093552;28;20139;-89
2020/12/02 01:42:28;;;;;;;1999.90;999.90;;;7.30;99.90;;;;;;5094205;28;20075;-88
2020/12/02 01:44:55;;;;;;;1999.90;999.90;;;7.30;99.90;;;;;;5092787;28;20052;-89
2020/12/02 01:47:33;;;;;;;1999.90;999.90;;;7.30;99.90;;;;;;5093630;28;20050;-89
2020/12/02 01:50:06;;;;;;;1999.90;999.90;;;7.20;99.90;;;;;;5093155;28;20054;-90
2020/12/02 01:52:46;;;;;;;1999.90;999.90;;;7.30;99.90;;;;;;5093601;28;20474;-90
2020/12/02 01:55:20;;;;;;;1999.90;999.90;;;7.30;99.90;;;;;;5093465;28;20131;-90
2020/12/02 01:57:51;;;;;;;1999.90;999.90;;;7.30;99.90;;;;;;5092275;28;20420;-90
2020/12/02 02:00:23;;;;;;;1999.90;999.90;;;7.30;99.90;;;;;;5093285;28;20497;-90
2020/12/02 02:02:57;;;;;;;1999.90;999.90;;;7.30;99.90;;;;;;5090603;28;20056;-90
2020/12/02 02:05:30;;;;;;;1999.90;999.90;;;7.20;99.90;;;;;;5093231;28;20075;-90
2020/12/02 02:07:58;;;;;;;1999.90;999.90;;;7.30;99.90;;;;;;5093232;28;20068;-90
2020/12/02 02:10:31;;;;;;;1999.90;999.90;;;7.20;99.90;;;;;;5092962;28;20075;-90
2020/12/02 02:13:38;;;;;;;1999.90;999.90;;;7.20;99.90;;;;;;5093224;28;20134;-89
2020/12/02 02:16:09;;;;;;;1999.90;999.90;;;7.20;99.90;;;;;;5088547;28;20044;-90
2020/12/02 02:18:36;;;;;;;1999.90;999.90;;;7.20;99.90;;;;;;5091789;28;20051;-90
2020/12/02 02:21:06;;;;;;;1999.90;999.90;;;7.20;99.90;;;;;;5093664;28;20078;-91
2020/12/02 02:23:34;;;;;;;1999.90;999.90;;;7.20;99.90;;;;;;5093398;28;20052;-90
2020/12/02 02:26:11;;;;;;;1999.90;999.90;;;7.20;99.90;;;;;;5092708;28;20058;-90
2020/12/02 02:28:41;;;;;;;1999.90;999.90;;;7.20;99.90;;;;;;5093619;28;20055;-90
2020/12/02 02:31:16;;;;;;;1999.90;999.90;;;7.10;99.90;;;;;;5093274;28;20102;-91
2020/12/02 02:33:43;;;;;;;1999.90;999.90;;;7.10;99.90;;;;;;5093325;28;20056;-91
2020/12/02 02:36:12;;;;;;;1999.90;999.90;;;7.20;99.90;;;;;;5093142;28;20052;-90
2020/12/02 02:38:40;;;;;;;1999.90;999.90;;;7.10;99.90;;;;;;5094928;28;20087;-90
2020/12/02 02:41:09;;;;;;;1999.90;999.90;;;7.10;99.90;;;;;;5096914;28;20130;-90
2020/12/02 02:43:38;;;;;;;1999.90;999.90;;;7.10;99.90;;;;;;5096997;28;20052;-90
2020/12/02 02:46:06;;;;;;;1999.90;999.90;;;7.20;99.90;;;;;;5096852;28;20063;-90
2020/12/02 02:48:33;;;;;;;1999.90;999.90;;;7.20;99.90;;;;;;5088059;28;20743;-90
2020/12/02 02:51:01;;;;;;;1999.90;999.90;;;7.20;99.90;;;;;;5096743;28;20078;-90
2020/12/02 02:53:28;;;;;;;1999.90;999.90;;;7.20;99.90;;;;;;5097039;28;20176;-90
2020/12/02 02:55:56;;;;;;;1999.90;999.90;;;7.10;99.90;;;;;;5097202;28;20052;-90
2020/12/02 02:58:26;;;;;;;1999.90;999.90;;;7.10;99.90;;;;;;5091644;28;20055;-91
2020/12/02 03:00:54;;;;;;;1999.90;999.90;;;7.10;99.90;;;;;;5088071;28;20470;-90
2020/12/02 03:03:21;;;;;;;1999.90;999.90;;;7.10;99.90;;;;;;5096740;28;20050;-91
2020/12/02 03:05:49;;;;;;;1999.90;999.90;;;7.20;99.90;;;;;;5096642;28;20048;-91
2020/12/02 03:08:18;;;;;;;1999.90;999.90;;;7.20;99.90;;;;;;5096173;28;20056;-90
2020/12/02 03:10:46;;;;;;;1999.90;999.90;;;7.20;99.90;;;;;;5095091;28;20391;-91
2020/12/02 03:13:30;;;;;;;1999.90;999.90;;;7.20;99.90;;;;;;5097109;28;20205;-92
2020/12/02 03:16:04;;;;;;;1999.90;999.90;;;7.20;99.90;;;;;;5093512;28;20052;-91
2020/12/02 03:18:32;;;;;;;1999.90;999.90;;;7.10;99.90;;;;;;5094217;28;20044;-90
2020/12/02 03:21:01;;;;;;;1999.90;999.90;;;7.20;99.90;;;;;;5084727;28;20044;-91
2020/12/02 03:23:28;;;;;;;1999.90;999.90;;;7.10;99.90;;;;;;5095948;28;20095;-90
2020/12/02 03:25:55;;;;;;;1999.90;999.90;;;7.10;99.90;;;;;;5096613;28;20056;-91
2020/12/02 03:28:28;;;;;;;1999.90;999.90;;;7.10;99.90;;;;;;5096145;28;20398;-91
2020/12/02 03:30:57;;;;;;;1999.90;999.90;;;7.10;99.90;;;;;;5095394;28;20486;-90
2020/12/02 03:33:24;;;;;;;1999.90;999.90;;;7.10;99.90;;;;;;5096382;28;20087;-90
2020/12/02 03:35:51;;;;;;;1999.90;999.90;;;7.10;99.90;;;;;;5090926;28;20054;-90
2020/12/02 03:38:18;;;;;;;1999.90;999.90;;;7.20;99.90;;;;;;5096166;28;20101;-91
2020/12/02 03:40:45;;;;;;;1999.90;999.90;;;7.10;99.90;;;;;;5092437;28;20048;-91
2020/12/02 03:43:12;;;;;;;1999.90;999.90;;;7.10;99.90;;;;;;5096468;28;20044;-90
2020/12/02 03:45:42;;;;;;;1999.90;999.90;;;7.10;99.90;;;;;;5096023;28;20150;-90
2020/12/02 03:48:10;;;;;;;1999.90;999.90;;;7.10;99.90;;;;;;5095933;28;20051;-90
2020/12/02 03:50:38;;;;;;;1999.90;999.90;;;7.10;99.90;;;;;;5094504;28;20121;-90
2020/12/02 03:53:06;;;;;;;1999.90;999.90;;;7.10;99.90;;;;;;5096002;28;20125;-90
2020/12/02 03:55:33;;;;;;;1999.90;999.90;;;7.10;99.90;;;;;;5095367;28;20052;-91
2020/12/02 03:58:01;;;;;;;1999.90;999.90;;;7.10;99.90;;;;;;5095939;28;20087;-90
2020/12/02 04:00:28;;;;;;;1999.90;999.90;;;7.10;99.90;;;;;;5095453;28;20052;-91
2020/12/02 04:02:56;;;;;;;1999.90;999.90;;;7.10;99.90;;;;;;5095592;28;20131;-90
2020/12/02 04:05:24;;;;;;;1999.90;999.90;;;7.10;99.90;;;;;;5095042;28;20502;-90
2020/12/02 04:07:51;;;;;;;1999.90;999.90;;;7.10;99.90;;;;;;5095587;28;20087;-90
2020/12/02 04:10:18;;;;;;;1999.90;999.90;;;7.10;99.90;;;;;;5095285;28;20040;-91
2020/12/02 04:12:45;;;;;;;1999.90;999.90;;;7.10;99.90;;;;;;5095295;28;20060;-90
2020/12/02 04:15:14;;;;;;;1999.90;999.90;;;7.10;99.90;;;;;;5095101;28;20056;-88
2020/12/02 04:17:42;;;;;;;1999.90;999.90;;;7.10;99.90;;;;;;5095317;28;20458;-90
2020/12/02 04:20:10;;;;;;;1999.90;999.90;;;7.10;99.90;;;;;;5095471;28;20077;-89
2020/12/02 04:22:37;;;;;;;1999.90;999.90;;;7.20;99.90;;;;;;5095222;28;20082;-90
2020/12/02 04:25:05;;;;;;;1999.90;999.90;;;7.10;99.90;;;;;;5094364;28;20048;-87
2020/12/02 04:27:32;;;;;;;1999.90;999.90;;;7.20;99.90;;;;;;5092577;28;20045;-90
2020/12/02 04:29:59;;;;;;;1999.90;999.90;;;7.20;99.90;;;;;;5084577;28;20048;-90
2020/12/02 04:32:26;;;;;;;1999.90;999.90;;;7.20;99.90;;;;;;5092023;28;20497;-91
2020/12/02 04:34:53;;;;;;;1999.90;999.90;;;7.20;99.90;;;;;;5095258;28;20040;-90
2020/12/02 04:37:21;;;;;;;1999.90;999.90;;;7.10;99.90;;;;;;5095094;28;20082;-90
2020/12/02 04:39:48;;;;;;;1999.90;999.90;;;7.10;99.90;;;;;;5094223;28;20127;-91
2020/12/02 04:42:15;;;;;;;1999.90;999.90;;;7.10;99.90;;;;;;5095619;28;20076;-90
2020/12/02 04:44:42;;;;;;;1999.90;999.90;;;7.00;99.90;;;;;;5094291;28;20048;-91
2020/12/02 04:47:11;;;;;;;1999.90;999.90;;;7.10;99.90;;;;;;5095185;28;20086;-91
2020/12/02 04:49:39;;;;;;;1999.90;999.90;;;7.00;99.90;;;;;;5094339;28;20101;-90
2020/12/02 04:52:12;;;;;;;1999.90;999.90;;;7.00;99.90;;;;;;5094914;28;20051;-90
2020/12/02 04:54:40;;;;;;;1999.90;999.90;;;7.00;99.90;;;;;;5092954;28;20054;-90
2020/12/02 04:57:09;;;;;;;1999.90;999.90;;;7.00;99.90;;;;;;5082780;28;20052;-90
2020/12/02 04:59:39;;;;;;;1999.90;999.90;;;7.00;99.90;;;;;;5094117;28;20040;-90
2020/12/02 05:02:06;;;;;;;1999.90;999.90;;;7.00;99.90;;;;;;5094028;28;20127;-90
2020/12/02 05:04:34;;;;;;;1999.90;999.90;;;7.00;99.90;;;;;;5094586;28;20423;-91
2020/12/02 05:07:14;;;;;;;1999.90;999.90;;;6.90;99.90;;;;;;5094297;28;20072;-90
2020/12/02 05:10:12;;;;;;;1999.90;999.90;;;6.90;99.90;;;;;;5092932;28;20131;-90
2020/12/02 05:12:42;;;;;;;1999.90;999.90;;;7.00;99.90;;;;;;5053225;28;20327;-91
2020/12/02 05:15:19;;;;;;;1999.90;999.90;;;7.00;99.90;;;;;;5091509;28;20232;-91
2020/12/02 05:18:03;;;;;;;1999.90;999.90;;;7.00;99.90;;;;;;5089967;28;20131;-91
2020/12/02 05:20:30;;;;;;;1999.90;999.90;;;7.00;99.90;;;;;;5088216;28;20051;-90
2020/12/02 05:23:11;;;;;;;1999.90;999.90;;;7.00;99.90;;;;;;5082709;28;20052;-90
2020/12/02 05:25:38;;;;;;;1999.90;999.90;;;7.00;99.90;;;;;;5093449;28;20453;-90
2020/12/02 05:28:17;;;;;;;1999.90;999.90;;;7.00;99.90;;;;;;5094397;28;20134;-90
2020/12/02 05:30:45;;;;;;;1999.90;999.90;;;7.00;99.90;;;;;;5093851;28;20086;-90
2020/12/02 05:33:20;;;;;;;1999.90;999.90;;;7.00;99.90;;;;;;5093604;28;20517;-90
2020/12/02 05:35:50;;;;;;;1999.90;999.90;;;7.00;99.90;;;;;;5087625;28;20062;-90
2020/12/02 05:38:27;;;;;;;1999.90;999.90;;;7.00;99.90;;;;;;5089646;28;20058;-90
2020/12/02 05:40:57;;;;;;;1999.90;999.90;;;7.00;99.90;;;;;;5088144;28;20079;-90
2020/12/02 05:43:31;;;;;;;1999.90;999.90;;;7.00;99.90;;;;;;5093391;28;20070;-87
2020/12/02 05:45:59;;;;;;;1999.90;999.90;;;7.00;99.90;;;;;;5093261;28;20166;-87
2020/12/02 05:48:31;;;;;;;1999.90;999.90;;;7.00;99.90;;;;;;5093203;28;20377;-88
2020/12/02 05:50:58;;;;;;;1999.90;999.90;;;6.90;99.90;;;;;;5093220;28;20052;-88
2020/12/02 05:53:30;;;;;;;1999.90;999.90;;;6.90;99.90;;;;;;5092479;28;20843;-86
2020/12/02 05:56:31;;;;;;;1999.90;999.90;;;6.90;99.90;;;;;;5093024;28;20126;-86
2020/12/02 05:59:49;;;;;;;1999.90;999.90;;;6.90;99.90;;;;;;5084727;28;20044;-87
2020/12/02 06:02:37;;;;;;;1999.90;999.90;;;6.90;99.90;;;;;;5057674;28;20738;-87
2020/12/02 06:05:07;;;;;;;;;;;6.90;99.90;;;;;;5088416;28;20080;-86
2020/12/02 06:07:47;;;;;;;1999.90;999.90;;;6.90;99.90;;;;;;5094285;28;19935;-86
2020/12/02 06:10:15;;;;;;;1999.90;999.90;;;6.90;99.90;;;;;;5102681;28;20374;-86
2020/12/02 06:12:44;;;;;;;1999.90;999.90;;;6.90;99.90;;;;;;5092736;28;20555;-87
2020/12/02 06:15:21;;;;;;;1999.90;999.90;;;6.90;99.90;;;;;;5091483;28;20052;-87
2020/12/02 06:17:48;;;;;;;1999.90;999.90;;;6.80;99.90;;;;;;5090457;28;20047;-84
2020/12/02 06:20:15;;;;;;;1999.90;999.90;;;6.80;99.90;;;;;;5091139;28;20565;-83
2020/12/02 06:22:53;;;;;;;1999.90;999.90;;;6.80;99.90;;;;;;5091859;28;20131;-83
2020/12/02 06:25:52;;;;;;;1999.90;999.90;;;6.80;99.90;;;;;;5091882;28;20048;-83
2020/12/02 06:28:45;;;;;;;1999.90;999.90;;;6.90;99.90;;;;;;5082559;28;20143;-83
2020/12/02 06:31:21;;;;;;;1999.90;999.90;;;6.80;99.90;;;;;;5089602;28;20504;-83
2020/12/02 06:33:49;;;;;;;1999.90;999.90;;;6.80;99.90;;;;;;5092281;28;20056;-82
2020/12/02 06:36:24;;;;;;;1999.90;999.90;;;6.90;99.90;;;;;;5102042;28;20070;-83
2020/12/02 06:38:53;;;;;;;1999.90;999.90;;;6.80;99.90;;;;;;5091859;28;20152;-83
2020/12/02 06:41:32;;;;;;;1999.90;999.90;;;6.90;99.90;;;;;;5089492;28;20136;-83
2020/12/02 06:44:20;;;;;;;1999.90;999.90;;;6.80;99.90;;;;;;5085703;28;20131;-83
2020/12/02 06:47:01;;;;;;;1999.90;999.90;;;6.90;99.90;;;;;;5082434;28;20055;-83
2020/12/02 06:49:30;;;;;;;1999.90;999.90;;;6.80;99.90;;;;;;5089870;28;20076;-83
2020/12/02 06:52:00;;;;;;;1999.90;999.90;;;6.80;99.90;;;;;;5091208;28;20125;-82
2020/12/02 06:54:33;;;;;;;1999.90;999.90;;;6.80;99.90;;;;;;5091523;28;20338;-83
2020/12/02 06:57:12;;;;;;;1999.90;999.90;;;6.90;99.90;;;;;;5084970;28;20044;-84
2020/12/02 06:59:50;;;;;;;1999.90;999.90;;;6.90;99.90;;;;;;5088482;28;20048;-84
2020/12/02 07:02:27;;;;;;;1999.90;999.90;;;6.90;99.90;;;;;;5091740;28;20091;-84
2020/12/02 07:04:57;;;;;;;1999.90;999.90;;;6.90;99.90;;;;;;5091869;28;20139;-84
2020/12/02 07:07:25;;;;;;;1999.90;999.90;;;6.90;99.90;;;;;;5088039;28;20040;-85
2020/12/02 07:09:53;;;;;;;1999.90;999.90;;;6.90;99.90;;;;;;5087982;28;20127;-84
2020/12/02 07:12:22;;;;;;;1999.90;999.90;;;6.90;99.90;;;;;;5089893;28;20140;-84
2020/12/02 07:14:51;;;;;;;1999.90;999.90;;;6.90;99.90;;;;;;5083668;28;20387;-84
2020/12/02 07:17:21;;;;;;;1999.90;999.90;;;6.90;99.90;;;;;;5091255;28;20594;-84
2020/12/02 07:19:49;;;;;;;1999.90;999.90;;;6.90;99.90;;;;;;5083612;28;20138;-85
2020/12/02 07:22:19;;;;;;;1999.90;999.90;;;6.90;99.90;;;;;;5089502;28;20462;-85
2020/12/02 07:24:48;;;;;;;1999.90;999.90;;;6.90;99.90;;;;;;5094025;28;20723;-85
2020/12/02 07:27:20;;;;;;;1999.90;999.90;;;6.80;99.90;;;;;;5094718;28;20134;-90
2020/12/02 07:29:55;;;;;;;1999.90;999.90;;;6.90;99.90;;;;;;5089066;28;20070;-84
2020/12/02 07:32:23;;;;;;;1999.90;999.90;;;6.80;99.90;;;;;;5095633;28;20098;-85
2020/12/02 07:34:59;;;;;;;1999.90;999.90;;;6.90;99.90;;;;;;5095501;28;20352;-86
2020/12/02 07:37:27;;;;;;;1999.90;999.90;;;6.90;99.90;;;;;;5094521;28;20479;-86
2020/12/02 07:39:57;;;;;;;1999.90;999.90;;;6.80;99.90;;;;;;5094495;28;20087;-85
2020/12/02 07:42:28;;;;;;;1999.90;999.90;;;6.80;99.90;;;;;;5094869;28;20126;-85
2020/12/02 07:45:04;;;;;;;1999.90;999.90;;;6.80;99.90;;;;;;5088819;28;20051;-86
2020/12/02 07:47:33;;;;;;;1999.90;999.90;;;6.80;99.90;;;;;;5088005;28;20054;-86
2020/12/02 07:50:04;;;;;;;1999.90;999.90;;;6.80;99.90;;;;;;5090805;28;20343;-86
2020/12/02 07:52:37;;;;;;;1999.90;999.90;;;6.80;99.90;;;;;;5095264;28;20101;-86
2020/12/02 07:55:07;;;;;;;1999.90;999.90;;;6.80;99.90;;;;;;5092372;28;20524;-89
2020/12/02 07:57:36;;;;;;;1999.90;999.90;;;6.80;99.90;;;;;;5094803;28;20055;-89
2020/12/02 08:00:13;;;;;;;1999.90;999.90;;;6.90;99.90;;;;;;5096950;28;20123;-89
2020/12/02 08:02:43;;;;;;;1999.90;999.90;;;6.80;99.90;;;;;;5095411;28;20090;-90
2020/12/02 08:05:28;;;;;;;1999.90;999.90;;;6.80;99.90;;;;;;5094894;28;20134;-89
2020/12/02 08:07:59;;;;;;;1999.90;999.90;;;6.80;99.90;;;;;;5096062;28;20142;-90
2020/12/02 08:10:31;;;;;;;1999.90;999.90;;;6.80;99.90;;;;;;5094469;28;20123;-90
2020/12/02 08:13:01;;;;;;;1999.90;999.90;;;6.80;99.90;;;;;;5095148;28;20406;-89
2020/12/02 08:15:29;;;;;;;1999.90;999.90;;;6.80;99.90;;;;;;5094901;28;20084;-90
2020/12/02 08:18:11;;;;;;;1999.90;999.90;;;6.80;99.90;;;;;;5094970;28;20052;-90
2020/12/02 08:20:39;;;;;;;1999.90;999.90;;;6.90;99.90;;;;;;5092650;28;20125;-89
2020/12/02 08:23:09;;;;;;;1999.90;999.90;;;6.90;99.90;;;;;;5095019;28;20075;-90
2020/12/02 08:25:45;;;;;;;1999.90;999.90;;;6.80;99.90;;;;;;5094026;28;20130;-90
2020/12/02 08:28:22;;;;;;;1999.90;999.90;;;6.80;99.90;;;;;;5087540;28;20044;-90
2020/12/02 08:31:00;;;;;;;1999.90;999.90;;;6.80;99.90;;;;;;5093470;28;20055;-90
2020/12/02 08:33:27;;;;;;;1999.90;999.90;;;6.80;99.90;;;;;;5092125;28;20066;-89
2020/12/02 08:36:02;;;;;;;1999.90;999.90;;;6.80;99.90;;;;;;5090958;28;20141;-90
2020/12/02 08:38:32;;;;;;;1999.90;999.90;;;6.90;99.90;;;;;;5093094;28;20111;-89
2020/12/02 08:41:00;;;;;;;1999.90;999.90;;;6.90;99.90;;;;;;5092622;28;20044;-89
2020/12/02 08:43:37;;;;;;;1999.90;999.90;;;6.80;99.90;;;;;;5092731;28;20068;-90
2020/12/02 08:46:17;;;;;;;1999.90;999.90;;;6.80;99.90;;;;;;5092538;28;20370;-90
2020/12/02 08:48:48;;;;;;;1999.90;999.90;;;6.80;99.90;;;;;;5093145;28;20127;-90
2020/12/02 08:51:18;;;;;;;1999.90;999.90;;;6.80;99.90;;;;;;5092340;28;20126;-89
2020/12/02 08:53:45;;;;;;;1999.90;999.90;;;6.80;99.90;;;;;;5092618;28;20395;-90
2020/12/02 08:56:30;;;;;;;1999.90;999.90;;;6.90;99.90;;;;;;5092281;28;20135;-89
2020/12/02 08:58:58;;;;;;;1999.90;999.90;;;6.80;99.90;;;;;;5092162;28;20070;-90
2020/12/02 09:01:25;;;;;;;1999.90;999.90;;;6.90;99.90;;;;;;5092307;28;20072;-90
2020/12/02 09:03:52;;;;;;;1999.90;999.90;;;6.90;99.90;;;;;;5092117;28;20482;-90
2020/12/02 09:06:21;;;;;;;1999.90;999.90;;;6.90;99.90;;;;;;5092402;28;20060;-89
2020/12/02 09:08:49;;;;;;;1999.90;999.90;;;6.80;99.90;;;;;;5091230;28;20087;-90
2020/12/02 09:11:21;;;;;;;1999.90;999.90;;;6.90;99.90;;;;;;5092610;28;20048;-90
2020/12/02 09:13:49;;;;;;;1999.90;999.90;;;6.90;99.90;;;;;;5091352;28;20044;-90
2020/12/02 09:16:25;;;;;;;1999.90;999.90;;;6.90;99.90;;;;;;5093234;28;20155;-90
2020/12/02 09:18:54;;;;;;;1999.90;999.90;;;6.90;99.90;;;;;;5093532;28;20072;-90
2020/12/02 09:21:22;;;;;;;1999.90;999.90;;;6.80;99.90;;;;;;5093692;28;20054;-90
2020/12/02 09:23:50;;;;;;;1999.90;999.90;;;6.80;99.90;;;;;;5095090;28;20493;-90
2020/12/02 09:26:22;;;;;;;1999.90;999.90;;;6.80;99.90;;;;;;5094849;28;20140;-90
2020/12/02 09:28:51;;;;;;;1999.90;999.90;;;6.90;99.90;;;;;;5093708;28;20066;-90
2020/12/02 09:31:21;;;;;;;1999.90;999.90;;;6.90;99.90;;;;;;5092059;28;20488;-90
2020/12/02 09:33:49;;;;;;;1999.90;999.90;;;6.90;99.90;;;;;;5091502;28;20063;-89
2020/12/02 09:36:17;;;;;;;1999.90;999.90;;;6.90;99.90;;;;;;5091565;28;20075;-90
2020/12/02 09:38:45;;;;;;;1999.90;999.90;;;6.90;99.90;;;;;;5091629;28;20080;-90
2020/12/02 09:41:31;;;;;;;1999.90;999.90;;;6.90;99.90;;;;;;5090850;28;20083;-90
2020/12/02 09:44:14;;;;;;;1999.90;999.90;;;6.90;99.90;;;;;;5091225;28;20147;-90
2020/12/02 09:46:43;;;;;;;1999.90;999.90;;;6.90;99.90;;;;;;5078968;28;20067;-90
2020/12/02 09:49:10;;;;;;;1999.90;999.90;;;6.90;99.90;;;;;;5091972;28;20452;-89
2020/12/02 09:51:40;;;;;;;1999.90;999.90;;;6.90;99.90;;;;;;5086333;28;20106;-90
2020/12/02 09:54:11;;;;;;;1999.90;999.90;;;6.90;99.90;;;;;;5073280;28;20071;-90
2020/12/02 09:56:42;;;;;;;1999.90;999.90;;;6.90;99.90;;;;;;5088916;28;20485;-90
2020/12/02 09:59:11;;;;;;;1999.90;999.90;;;6.90;99.90;;;;;;5092592;28;20080;-90
2020/12/02 10:01:49;;;;;;;1999.90;999.90;;;7.00;99.90;;;;;;5092394;28;20076;-90
2020/12/02 10:04:31;;;;;;;1999.90;999.90;;;6.90;99.90;;;;;;5081903;28;20072;-90
2020/12/02 10:07:20;;;;;;;1999.90;999.90;;;6.90;99.90;;;;;;5089082;28;20215;-86
2020/12/02 10:10:10;;;;;;;1999.90;999.90;;;7.00;99.90;;;;;;5090122;28;20070;-85
2020/12/02 10:12:48;;;;;;;1999.90;999.90;;;7.00;99.90;;;;;;5072585;28;20167;-86
2020/12/02 10:15:25;;;;;;;1999.90;999.90;;;7.00;99.90;;;;;;5086460;28;20351;-85
2020/12/02 10:18:07;;;;;;;1999.90;999.90;;;7.00;99.90;;;;;;5090563;28;20087;-86
2020/12/02 10:20:41;;;;;;;1999.90;999.90;;;7.00;99.90;;;;;;5088204;28;20056;-86
2020/12/02 10:23:31;;;;;;;1999.90;999.90;;;7.10;99.90;;;;;;5090323;28;20051;-85
2020/12/02 10:26:42;;;;;;;1999.90;999.90;;;7.10;99.90;;;;;;5089829;28;20048;-85
2020/12/02 10:29:16;;;;;;;1999.90;999.90;;;7.10;99.90;;;;;;5085975;28;20049;-86
2020/12/02 10:31:56;;;;;;;1999.90;999.90;;;7.10;99.90;;;;;;5080675;28;20052;-86
2020/12/02 10:34:27;;;;;;;1999.90;999.90;;;7.10;99.90;;;;;;5089303;28;20080;-85
2020/12/02 10:36:59;;;;;;;1999.90;999.90;;;7.10;99.90;;;;;;5090601;28;20139;-86
2020/12/02 10:39:31;;;;;;;1999.90;999.90;;;7.20;99.90;;;;;;5089557;28;20087;-86
2020/12/02 10:42:09;;;;;;;1999.90;999.90;;;7.10;99.90;;;;;;5090312;28;20055;-86
2020/12/02 10:44:53;;;;;;;1999.90;999.90;;;7.20;99.90;;;;;;5089212;28;20052;-86
2020/12/02 10:47:52;;;;;;;1999.90;999.90;;;7.20;99.90;;;;;;5090458;28;20481;-86
2020/12/02 10:50:22;;;;;;;1999.90;999.90;;;7.10;99.90;;;;;;5079681;28;20056;-86
2020/12/02 10:52:51;;;;;;;1999.90;999.90;;;7.20;99.90;;;;;;5089501;28;20528;-86
2020/12/02 10:55:24;;;;;;;1999.90;999.90;;;7.20;99.90;;;;;;5089867;28;20127;-86
2020/12/02 10:57:58;;;;;;;1999.90;999.90;;;7.20;99.90;;;;;;5089509;28;20044;-86
2020/12/02 11:00:25;;;;;;;1999.90;999.90;;;7.20;99.90;;;;;;5093259;28;20127;-86
2020/12/02 11:03:14;;;;;;;1999.90;999.90;;;7.20;99.90;;;;;;5093824;28;20447;-87
2020/12/02 11:05:47;;;;;;;1999.90;999.90;;;7.20;99.90;;;;;;5093707;28;20055;-85
2020/12/02 11:08:26;;;;;;;1999.90;999.90;;;7.20;99.90;;;;;;5093491;28;20142;-85
2020/12/02 11:11:05;;;;;;;1999.90;999.90;;;7.20;99.90;;;;;;5093700;28;20058;-85
2020/12/02 11:13:39;;;;;;;1999.90;999.90;;;7.20;99.90;;;;;;5093230;28;20052;-86
2020/12/02 11:16:12;;;;;;;1999.90;999.90;;;7.20;99.90;;;;;;5093594;28;20076;-86
2020/12/02 11:18:51;;;;;;;1999.90;999.90;;;7.20;99.90;;;;;;5093159;28;20043;-85
2020/12/02 11:21:35;;;;;;;1999.90;999.90;;;7.20;99.90;;;;;;5093828;28;20040;-85
2020/12/02 11:24:22;;;;;;;1999.90;999.90;;;7.20;99.90;;;;;;5093045;28;20370;-86
2020/12/02 11:26:50;;;;;;;1999.90;999.90;;;7.20;99.90;;;;;;5093647;28;20058;-85
2020/12/02 11:29:19;;;;;;;1999.90;999.90;;;7.20;99.90;;;;;;5092856;28;20517;-86
2020/12/02 11:32:10;;;;;;;1999.90;999.90;;;7.20;99.90;;;;;;5093409;28;20044;-86
2020/12/02 11:34:49;;;;;;;1999.90;999.90;;;7.20;99.90;;;;;;5081975;28;20173;-85
2020/12/02 11:37:21;;;;;;;1999.90;999.90;;;7.20;99.90;;;;;;5092884;28;20052;-86
2020/12/02 11:39:58;;;;;;;1999.90;999.90;;;7.20;99.90;;;;;;5093463;28;20194;-86
2020/12/02 11:42:32;;;;;;;1999.90;999.90;;;7.20;99.90;;;;;;5092938;28;20066;-86
2020/12/02 11:45:04;;;;;;;1999.90;999.90;;;7.20;99.90;;;;;;5081060;28;20516;-86
2020/12/02 11:47:42;;;;;;;1999.90;999.90;;;7.20;99.90;;;;;;5093154;28;20147;-86
2020/12/02 11:50:19;;;;;;;1999.90;999.90;;;7.20;99.90;;;;;;5081515;28;20075;-86
2020/12/02 11:53:00;;;;;;;1999.90;999.90;;;7.20;99.90;;;;;;5092603;28;20236;-86
2020/12/02 11:55:31;;;;;;;1999.90;999.90;;;7.30;99.90;;;;;;5092682;28;20056;-86
2020/12/02 11:58:02;;;;;;;1999.90;999.90;;;7.30;99.90;;;;;;5090541;28;20528;-86
2020/12/02 12:00:29;;;;;;;1999.90;999.90;;;7.30;99.90;;;;;;5082901;28;20043;-86
2020/12/02 12:03:18;;;;;;;1999.90;999.90;;;7.30;99.90;;;;;;5091964;28;20058;-86
2020/12/02 12:05:57;;;;;;;1999.90;999.90;;;7.30;99.90;;;;;;5084142;28;20052;-86
2020/12/02 12:08:38;;;;;;;1999.90;999.90;;;7.40;99.90;;;;;;5092114;28;20056;-86
2020/12/02 12:11:11;;;;;;;1999.90;999.90;;;7.40;99.90;;;;;;5091084;28;20047;-86
2020/12/02 12:13:45;;;;;;;1999.90;999.90;;;7.40;99.90;;;;;;5088875;28;20047;-86
2020/12/02 12:16:18;;;;;;;1999.90;999.90;;;7.50;99.90;;;;;;5082738;28;20079;-86
2020/12/02 12:18:53;;;;;;;1999.90;999.90;;;7.50;99.90;;;;;;5092036;28;20051;-86
2020/12/02 12:21:31;;;;;;;1999.90;999.90;;;7.50;99.90;;;;;;5092642;28;20096;-85
2020/12/02 12:24:01;;;;;;;1999.90;999.90;;;7.50;99.90;;;;;;5091919;28;20078;-86
2020/12/02 12:26:33;;;;;;;1999.90;999.90;;;7.50;99.90;;;;;;5092357;28;20048;-86
2020/12/02 12:29:00;;;;;;;1999.90;999.90;;;7.50;99.90;;;;;;5091433;28;20445;-86
2020/12/02 12:31:34;;;;;;;1999.90;999.90;;;7.40;99.90;;;;;;5092361;28;20046;-87
2020/12/02 12:34:19;;;;;;;1999.90;999.90;;;7.40;99.90;;;;;;5092264;28;20207;-86
2020/12/02 12:36:51;;;;;;;1999.90;999.90;;;7.40;99.90;;;;;;5089858;28;20094;-85
2020/12/02 12:39:24;;;;;;;1999.90;999.90;;;7.50;99.90;;;;;;5091769;28;20047;-85